sensor_id;sensor_type;location;lat;lon;timestamp;temperature;humidity
1524;DHT22;755;53.658;10.118;2023-05-24T00:09:55;10.10;1.00
1524;DHT22;755;53.658;10.118;2023-05-24T00:19:57;10.10;1.00
1524;DHT22;755;53.658;10.118;2023-05-24T00:30:01;10.00;99.90
1524;DHT22;755;53.658;10.118;2023-05-24T00:40:03;10.10;99.90
1524;DHT22;755;53.658;10.118;2023-05-24T00:50:09;10.10;99.90
1524;DHT22;755;53.658;10.118;2023-05-24T01:00:13;10.00;1.00
1524;DHT22;755;53.658;10.118;2023-05-24T01:10:31;10.10;1.00
1524;DHT22;755;53.658;10.118;2023-05-24T01:20:38;10.10;1.00
1524;DHT22;755;53.658;10.118;2023-05-24T01:30:42;10.10;1.00
1524;DHT22;755;53.658;10.118;2023-05-24T01:40:46;10.20;1.00
1524;DHT22;755;53.658;10.118;2023-05-24T01:50:54;10.10;1.00
1524;DHT22;755;53.658;10.118;2023-05-24T02:00:58;10.10;1.00
1524;DHT22;755;53.658;10.118;2023-05-24T02:11:02;10.10;1.00
1524;DHT22;755;53.658;10.118;2023-05-24T02:21:04;10.20;1.00
1524;DHT22;755;53.658;10.118;2023-05-24T02:31:11;10.20;1.00
1524;DHT22;755;53.658;10.118;2023-05-24T02:41:14;10.20;1.00
1524;DHT22;755;53.658;10.118;2023-05-24T02:51:20;10.20;1.00
1524;DHT22;755;53.658;10.118;2023-05-24T03:01:22;10.20;13.00
1524;DHT22;755;53.658;10.118;2023-05-24T03:11:25;10.20;76.70
1524;DHT22;755;53.658;10.118;2023-05-24T03:21:27;10.30;99.90
1524;DHT22;755;53.658;10.118;2023-05-24T03:31:30;10.30;99.90
1524;DHT22;755;53.658;10.118;2023-05-24T03:41:32;10.30;99.90
1524;DHT22;755;53.658;10.118;2023-05-24T03:51:36;10.30;99.90
1524;DHT22;755;53.658;10.118;2023-05-24T04:01:38;10.30;99.90
1524;DHT22;755;53.658;10.118;2023-05-24T04:11:41;10.30;99.90
1524;DHT22;755;53.658;10.118;2023-05-24T04:21:44;10.40;99.90
1524;DHT22;755;53.658;10.118;2023-05-24T04:31:47;10.40;99.90
1524;DHT22;755;53.658;10.118;2023-05-24T04:41:49;10.50;99.90
1524;DHT22;755;53.658;10.118;2023-05-24T04:51:55;10.40;99.90
1524;DHT22;755;53.658;10.118;2023-05-24T05:01:57;10.40;99.90
1524;DHT22;755;53.658;10.118;2023-05-24T05:12:01;10.60;99.90
1524;DHT22;755;53.658;10.118;2023-05-24T05:22:03;10.60;99.90
1524;DHT22;755;53.658;10.118;2023-05-24T05:32:07;10.70;99.90
1524;DHT22;755;53.658;10.118;2023-05-24T05:42:08;11.10;99.90
1524;DHT22;755;53.658;10.118;2023-05-24T05:52:12;11.30;99.90
1524;DHT22;755;53.658;10.118;2023-05-24T06:02:14;11.10;99.90
1524;DHT22;755;53.658;10.118;2023-05-24T06:12:17;11.00;99.90
1524;DHT22;755;53.658;10.118;2023-05-24T06:22:19;11.00;99.90
1524;DHT22;755;53.658;10.118;2023-05-24T06:32:23;11.10;99.90
1524;DHT22;755;53.658;10.118;2023-05-24T06:42:25;11.20;99.90
1524;DHT22;755;53.658;10.118;2023-05-24T06:52:29;11.30;99.90
1524;DHT22;755;53.658;10.118;2023-05-24T07:02:31;11.70;99.90
1524;DHT22;755;53.658;10.118;2023-05-24T07:12:34;11.90;99.90
1524;DHT22;755;53.658;10.118;2023-05-24T07:22:36;12.30;99.90
1524;DHT22;755;53.658;10.118;2023-05-24T07:32:39;12.50;1.00
1524;DHT22;755;53.658;10.118;2023-05-24T07:42:42;12.40;1.00
1524;DHT22;755;53.658;10.118;2023-05-24T07:52:45;12.10;1.00
1524;DHT22;755;53.658;10.118;2023-05-24T08:02:47;12.00;99.90
1524;DHT22;755;53.658;10.118;2023-05-24T08:12:50;11.90;61.80
1524;DHT22;755;53.658;10.118;2023-05-24T08:22:54;12.10;99.90
1524;DHT22;755;53.658;10.118;2023-05-24T08:32:57;11.70;1.00
1524;DHT22;755;53.658;10.118;2023-05-24T08:43:00;11.90;99.90
1524;DHT22;755;53.658;10.118;2023-05-24T08:53:05;12.30;1.00
1524;DHT22;755;53.658;10.118;2023-05-24T09:03:08;12.80;1.00
1524;DHT22;755;53.658;10.118;2023-05-24T09:13:14;13.10;1.00
1524;DHT22;755;53.658;10.118;2023-05-24T09:23:17;13.70;99.90
1524;DHT22;755;53.658;10.118;2023-05-24T09:33:22;13.30;99.90
1524;DHT22;755;53.658;10.118;2023-05-24T09:43:25;13.60;99.90
1524;DHT22;755;53.658;10.118;2023-05-24T09:53:31;13.50;99.90
1524;DHT22;755;53.658;10.118;2023-05-24T10:03:34;13.70;22.60
1524;DHT22;755;53.658;10.118;2023-05-24T10:13:38;13.20;1.00
1524;DHT22;755;53.658;10.118;2023-05-24T10:23:43;13.30;99.90
1524;DHT22;755;53.658;10.118;2023-05-24T10:33:46;13.50;1.00
1524;DHT22;755;53.658;10.118;2023-05-24T10:43:52;13.90;1.00
1524;DHT22;755;53.658;10.118;2023-05-24T10:53:56;14.30;1.00
1524;DHT22;755;53.658;10.118;2023-05-24T11:04:06;14.60;99.90
1524;DHT22;755;53.658;10.118;2023-05-24T11:14:10;15.30;1.00
1524;DHT22;755;53.658;10.118;2023-05-24T11:24:12;14.90;1.00
1524;DHT22;755;53.658;10.118;2023-05-24T11:34:15;14.90;1.00
1524;DHT22;755;53.658;10.118;2023-05-24T11:44:18;15.90;3.30
1524;DHT22;755;53.658;10.118;2023-05-24T11:54:21;15.40;1.00
1524;DHT22;755;53.658;10.118;2023-05-24T12:04:23;16.30;1.00
1524;DHT22;755;53.658;10.118;2023-05-24T12:14:29;15.50;1.00
1524;DHT22;755;53.658;10.118;2023-05-24T12:24:31;16.00;99.90
1524;DHT22;755;53.658;10.118;2023-05-24T12:34:34;16.50;1.00
1524;DHT22;755;53.658;10.118;2023-05-24T12:44:37;16.70;20.40
1524;DHT22;755;53.658;10.118;2023-05-24T12:54:40;16.70;1.00
1524;DHT22;755;53.658;10.118;2023-05-24T13:04:42;16.90;99.90
1524;DHT22;755;53.658;10.118;2023-05-24T13:14:45;17.20;81.60
1524;DHT22;755;53.658;10.118;2023-05-24T13:24:47;17.30;1.00
1524;DHT22;755;53.658;10.118;2023-05-24T13:34:51;17.00;1.00
1524;DHT22;755;53.658;10.118;2023-05-24T13:44:53;17.30;1.00
1524;DHT22;755;53.658;10.118;2023-05-24T13:54:57;17.90;1.00
1524;DHT22;755;53.658;10.118;2023-05-24T14:04:59;17.80;99.90
1524;DHT22;755;53.658;10.118;2023-05-24T14:15:02;18.60;82.00
1524;DHT22;755;53.658;10.118;2023-05-24T14:25:07;18.10;99.90
1524;DHT22;755;53.658;10.118;2023-05-24T14:35:10;17.10;99.90
1524;DHT22;755;53.658;10.118;2023-05-24T14:45:12;18.00;99.90
1524;DHT22;755;53.658;10.118;2023-05-24T14:55:16;18.10;1.00
1524;DHT22;755;53.658;10.118;2023-05-24T15:05:18;17.40;99.90
1524;DHT22;755;53.658;10.118;2023-05-24T15:15:22;16.70;1.00
1524;DHT22;755;53.658;10.118;2023-05-24T15:25:24;16.90;99.90
1524;DHT22;755;53.658;10.118;2023-05-24T15:35:28;16.70;99.90
1524;DHT22;755;53.658;10.118;2023-05-24T15:45:30;16.90;1.00
1524;DHT22;755;53.658;10.118;2023-05-24T15:55:34;16.60;1.00
1524;DHT22;755;53.658;10.118;2023-05-24T16:05:36;16.80;1.00
1524;DHT22;755;53.658;10.118;2023-05-24T16:15:42;16.70;99.90
1524;DHT22;755;53.658;10.118;2023-05-24T16:25:50;16.20;1.00
1524;DHT22;755;53.658;10.118;2023-05-24T16:35:54;15.80;1.00
1524;DHT22;755;53.658;10.118;2023-05-24T16:45:56;15.80;1.00
1524;DHT22;755;53.658;10.118;2023-05-24T16:56:05;15.80;1.00
1524;DHT22;755;53.658;10.118;2023-05-24T17:06:12;15.70;95.30
1524;DHT22;755;53.658;10.118;2023-05-24T17:16:18;15.90;1.00
1524;DHT22;755;53.658;10.118;2023-05-24T17:26:25;16.10;1.00
1524;DHT22;755;53.658;10.118;2023-05-24T17:36:28;15.70;1.00
1524;DHT22;755;53.658;10.118;2023-05-24T17:46:33;15.50;99.90
1524;DHT22;755;53.658;10.118;2023-05-24T17:56:36;15.60;1.00
1524;DHT22;755;53.658;10.118;2023-05-24T18:06:39;15.50;1.00
1524;DHT22;755;53.658;10.118;2023-05-24T18:16:44;15.40;99.90
1524;DHT22;755;53.658;10.118;2023-05-24T18:26:57;15.10;1.00
1524;DHT22;755;53.658;10.118;2023-05-24T18:37:22;14.90;1.00
1524;DHT22;755;53.658;10.118;2023-05-24T18:47:36;14.50;1.00
1524;DHT22;755;53.658;10.118;2023-05-24T18:57:50;14.00;99.90
1524;DHT22;755;53.658;10.118;2023-05-24T19:07:52;13.70;1.00
1524;DHT22;755;53.658;10.118;2023-05-24T19:18:02;13.30;1.00
1524;DHT22;755;53.658;10.118;2023-05-24T19:28:14;13.20;1.00
1524;DHT22;755;53.658;10.118;2023-05-24T19:38:24;13.00;1.00
1524;DHT22;755;53.658;10.118;2023-05-24T19:48:35;12.80;99.90
1524;DHT22;755;53.658;10.118;2023-05-24T19:58:38;12.60;99.90
1524;DHT22;755;53.658;10.118;2023-05-24T20:08:40;12.50;99.90
1524;DHT22;755;53.658;10.118;2023-05-24T20:18:44;12.50;99.90
1524;DHT22;755;53.658;10.118;2023-05-24T20:28:46;12.40;99.90
1524;DHT22;755;53.658;10.118;2023-05-24T20:38:51;12.10;99.90
1524;DHT22;755;53.658;10.118;2023-05-24T20:48:53;12.00;99.90
1524;DHT22;755;53.658;10.118;2023-05-24T20:58:56;11.90;99.90
1524;DHT22;755;53.658;10.118;2023-05-24T21:08:59;11.80;99.90
1524;DHT22;755;53.658;10.118;2023-05-24T21:19:03;11.80;99.90
1524;DHT22;755;53.658;10.118;2023-05-24T21:29:05;11.80;99.90
1524;DHT22;755;53.658;10.118;2023-05-24T21:39:08;11.80;99.90
1524;DHT22;755;53.658;10.118;2023-05-24T21:49:10;11.80;99.90
1524;DHT22;755;53.658;10.118;2023-05-24T21:59:13;11.80;99.90
1524;DHT22;755;53.658;10.118;2023-05-24T22:09:15;11.60;99.90
1524;DHT22;755;53.658;10.118;2023-05-24T22:19:20;11.50;99.90
1524;DHT22;755;53.658;10.118;2023-05-24T22:29:24;11.30;99.90
1524;DHT22;755;53.658;10.118;2023-05-24T22:39:27;11.30;99.90
1524;DHT22;755;53.658;10.118;2023-05-24T22:49:29;11.20;99.90
1524;DHT22;755;53.658;10.118;2023-05-24T22:59:34;11.10;99.90
1524;DHT22;755;53.658;10.118;2023-05-24T23:09:36;10.90;99.90
1524;DHT22;755;53.658;10.118;2023-05-24T23:19:42;10.80;99.90
1524;DHT22;755;53.658;10.118;2023-05-24T23:29:44;10.60;99.90
1524;DHT22;755;53.658;10.118;2023-05-24T23:39:48;10.60;99.90
1524;DHT22;755;53.658;10.118;2023-05-24T23:49:50;10.70;99.90
1524;DHT22;755;53.658;10.118;2023-05-24T23:59:53;10.50;99.90
